Time;durP1;ratioP1;P1;durP2;ratioP2;P2;SDS_P1;SDS_P2;PMS_P1;PMS_P2;Temp;Humidity;BMP_temperature;BMP_pressure;BME280_temperature;BME280_humidity;BME280_pressure;Samples;Min_cycle;Max_cycle;Signal;HPM_P1;HPM_P2
2022/10/08 00:01:03;;;;;;;9.32;5.45;;;10.80;99.90;;;;;;5092711;28;20043;-48
2022/10/08 00:03:33;;;;;;;10.00;6.18;;;10.80;99.90;;;;;;5092751;28;20048;-51
2022/10/08 00:06:02;;;;;;;12.23;6.20;;;10.70;99.90;;;;;;5085244;28;20497;-50
2022/10/08 00:08:32;;;;;;;10.88;5.45;;;10.80;99.90;;;;;;5093419;28;20157;-49
2022/10/08 00:11:02;;;;;;;10.07;5.80;;;10.80;99.90;;;;;;5093273;28;20044;-48
2022/10/08 00:13:39;;;;;;;9.60;6.00;;;10.80;99.90;;;;;;5088666;28;20114;-49
2022/10/08 00:16:12;;;;;;;12.52;7.45;;;10.70;99.90;;;;;;5072864;28;20044;-48
2022/10/08 00:18:41;;;;;;;15.27;8.55;;;10.80;99.90;;;;;;5073849;28;20044;-59
2022/10/08 00:21:13;;;;;;;14.07;8.20;;;10.90;99.90;;;;;;5072079;28;20045;-48
2022/10/08 00:23:41;;;;;;;11.48;7.32;;;10.90;99.90;;;;;;5072894;28;20056;-49
2022/10/08 00:26:08;;;;;;;11.90;6.20;;;10.90;99.90;;;;;;5091260;28;20079;-50
2022/10/08 00:28:35;;;;;;;;;;;10.80;99.90;;;;;;5070159;28;20484;-48
2022/10/08 00:31:09;;;;;;;11.02;6.47;;;10.80;99.90;;;;;;5074064;28;19989;-49
2022/10/08 00:33:37;;;;;;;11.45;7.30;;;10.80;99.90;;;;;;5072345;28;20040;-49
2022/10/08 00:36:06;;;;;;;9.65;5.30;;;10.80;99.90;;;;;;5073299;28;20045;-49
2022/10/08 00:38:34;;;;;;;14.00;5.63;;;10.80;99.90;;;;;;5076778;28;20443;-50
2022/10/08 00:41:01;;;;;;;8.65;5.50;;;10.80;99.90;;;;;;5085341;28;20072;-50
2022/10/08 00:43:45;;;;;;;11.77;5.68;;;10.80;99.90;;;;;;5076744;28;20071;-51
2022/10/08 00:46:40;;;;;;;7.22;5.18;;;10.70;99.90;;;;;;5075523;28;20079;-49
2022/10/08 00:49:18;;;;;;;10.35;5.65;;;10.60;99.90;;;;;;5072347;28;20101;-47
2022/10/08 00:51:54;;;;;;;13.35;5.10;;;10.60;99.90;;;;;;5072183;28;20032;-49
2022/10/08 00:54:22;;;;;;;8.45;5.13;;;10.60;99.90;;;;;;5072285;28;20087;-48
2022/10/08 00:56:51;;;;;;;9.80;5.07;;;10.50;99.90;;;;;;5078727;28;20051;-48
2022/10/08 00:59:19;;;;;;;9.07;5.18;;;10.50;99.90;;;;;;5085347;28;20090;-46
2022/10/08 01:01:46;;;;;;;12.73;6.47;;;10.50;99.90;;;;;;5091335;28;20127;-48
2022/10/08 01:04:14;;;;;;;13.07;7.30;;;10.50;99.90;;;;;;5075564;28;20056;-48
2022/10/08 01:06:57;;;;;;;11.93;6.20;;;10.70;99.90;;;;;;5084576;28;20070;-49
2022/10/08 01:09:34;;;;;;;18.00;7.90;;;10.60;99.90;;;;;;5079994;28;20044;-50
2022/10/08 01:12:15;;;;;;;13.10;7.47;;;10.60;99.90;;;;;;5080800;28;20043;-49
2022/10/08 01:14:55;;;;;;;17.33;7.85;;;10.60;99.90;;;;;;5077782;28;20404;-48
2022/10/08 01:17:47;;;;;;;22.63;12.40;;;10.70;99.90;;;;;;5079916;28;20045;-50
2022/10/08 01:20:22;;;;;;;31.13;14.60;;;10.70;99.90;;;;;;5081981;28;20036;-49
2022/10/08 01:22:57;;;;;;;28.13;14.38;;;10.70;99.90;;;;;;5079765;28;20406;-49
2022/10/08 01:25:52;;;;;;;25.13;13.57;;;10.70;99.90;;;;;;5091649;28;20044;-52
2022/10/08 01:28:43;;;;;;;31.42;14.75;;;10.70;99.90;;;;;;5087823;28;20475;-49
2022/10/08 01:31:35;;;;;;;25.60;13.50;;;10.70;99.90;;;;;;5071811;28;20515;-50
2022/10/08 01:34:10;;;;;;;30.95;14.00;;;10.60;99.90;;;;;;5043621;28;20060;-51
2022/10/08 01:36:42;;;;;;;22.30;12.63;;;10.60;99.90;;;;;;5078494;28;20032;-49
2022/10/08 01:39:15;;;;;;;17.02;8.90;;;10.60;99.90;;;;;;5084163;28;20103;-48
2022/10/08 01:41:47;;;;;;;22.25;12.88;;;10.60;99.90;;;;;;5086306;28;20461;-48
2022/10/08 01:44:40;;;;;;;21.15;12.32;;;10.50;99.90;;;;;;5082265;28;20044;-49
2022/10/08 01:47:10;;;;;;;15.05;8.60;;;10.60;99.90;;;;;;5069574;28;20474;-49
2022/10/08 01:49:50;;;;;;;22.05;10.02;;;10.60;99.90;;;;;;5091272;28;20638;-48
2022/10/08 01:52:25;;;;;;;20.13;10.15;;;10.50;99.90;;;;;;5091483;28;20458;-50
2022/10/08 01:54:58;;;;;;;25.77;12.20;;;10.50;99.90;;;;;;5083889;28;20105;-48
2022/10/08 01:57:26;;;;;;;23.58;13.52;;;10.40;99.90;;;;;;5089523;28;20040;-49
2022/10/08 02:00:02;;;;;;;26.20;13.27;;;10.50;99.90;;;;;;5078293;28;20074;-48
2022/10/08 02:02:37;;;;;;;29.25;14.20;;;10.40;99.90;;;;;;5091887;28;20052;-48
2022/10/08 02:05:05;;;;;;;29.70;13.38;;;10.70;99.90;;;;;;5090588;28;20032;-48
2022/10/08 02:07:34;;;;;;;;;;;10.30;99.90;;;;;;5091719;28;20067;-49
2022/10/08 02:10:06;;;;;;;22.98;12.88;;;10.30;99.90;;;;;;5082097;28;20038;-50
2022/10/08 02:12:34;;;;;;;24.95;13.30;;;10.30;99.90;;;;;;5080907;28;20067;-48
2022/10/08 02:15:03;;;;;;;26.08;13.45;;;10.30;99.90;;;;;;5072882;28;20527;-49
2022/10/08 02:17:52;;;;;;;25.52;13.60;;;10.30;99.90;;;;;;5070064;28;20063;-49
2022/10/08 02:20:31;;;;;;;26.20;13.38;;;10.30;99.90;;;;;;5070534;28;20040;-48
2022/10/08 02:23:18;;;;;;;27.13;13.38;;;10.30;99.90;;;;;;5082365;28;20075;-49
2022/10/08 02:26:17;;;;;;;23.95;12.60;;;10.20;99.90;;;;;;5094444;22;20111;-56
2022/10/08 02:28:47;;;;;;;26.48;14.13;;;10.20;99.90;;;;;;5070143;28;20481;-52
2022/10/08 02:31:29;;;;;;;23.80;12.02;;;10.20;99.90;;;;;;5070330;28;20064;-51
2022/10/08 02:34:18;;;;;;;19.33;11.85;;;10.20;99.90;;;;;;5081682;28;20044;-53
2022/10/08 02:36:51;;;;;;;20.40;11.90;;;10.20;99.90;;;;;;5091179;28;20122;-52
2022/10/08 02:39:19;;;;;;;20.83;11.30;;;10.30;99.90;;;;;;5079313;28;20056;-52
2022/10/08 02:41:50;;;;;;;18.05;10.90;;;10.30;99.90;;;;;;5078824;28;20082;-53
2022/10/08 02:44:37;;;;;;;17.88;10.38;;;10.30;99.90;;;;;;5084026;28;20044;-51
2022/10/08 02:47:09;;;;;;;18.73;10.35;;;10.30;99.90;;;;;;5070780;28;20109;-54
2022/10/08 02:49:41;;;;;;;19.42;11.35;;;10.40;99.90;;;;;;5087192;28;20093;-52
2022/10/08 02:52:09;;;;;;;22.02;11.02;;;10.30;99.90;;;;;;5086256;28;20040;-55
2022/10/08 02:54:40;;;;;;;18.50;10.55;;;10.30;99.90;;;;;;5073695;28;20067;-54
2022/10/08 02:57:12;;;;;;;17.15;10.50;;;10.30;99.90;;;;;;5079128;28;20469;-54
2022/10/08 02:59:39;;;;;;;17.17;9.98;;;10.30;99.90;;;;;;5089851;28;20093;-53
2022/10/08 03:02:05;;;;;;;19.70;10.50;;;10.30;99.90;;;;;;5081277;28;20475;-53
2022/10/08 03:04:44;;;;;;;18.05;11.02;;;10.30;99.90;;;;;;5069513;28;20580;-52
2022/10/08 03:07:13;;;;;;;16.27;10.57;;;10.30;99.90;;;;;;5069943;28;20076;-53
2022/10/08 03:09:43;;;;;;;15.77;9.60;;;10.30;99.90;;;;;;5070042;28;20090;-53
2022/10/08 03:12:10;;;;;;;15.90;9.45;;;10.20;99.90;;;;;;5077444;28;20071;-54
2022/10/08 03:14:40;;;;;;;15.48;9.50;;;10.20;99.90;;;;;;5072309;28;20114;-55
2022/10/08 03:17:09;;;;;;;20.58;9.57;;;10.20;99.90;;;;;;5068771;28;20493;-53
2022/10/08 03:19:35;;;;;;;14.07;9.52;;;10.30;99.90;;;;;;5070198;28;20068;-54
2022/10/08 03:22:03;;;;;;;11.77;7.90;;;10.20;99.90;;;;;;5071409;28;20083;-52
2022/10/08 03:24:30;;;;;;;;;;;10.20;99.90;;;;;;5078659;28;20068;-55
2022/10/08 03:26:56;;;;;;;17.77;8.40;;;10.10;99.90;;;;;;5072734;28;19955;-54
2022/10/08 03:29:23;;;;;;;11.95;8.35;;;10.20;99.90;;;;;;5094505;28;20499;-53
2022/10/08 03:31:50;;;;;;;10.82;7.90;;;10.20;99.90;;;;;;5090427;28;20447;-54
2022/10/08 03:34:17;;;;;;;11.43;8.48;;;10.20;99.90;;;;;;5076049;28;20040;-53
2022/10/08 03:36:43;;;;;;;16.73;8.95;;;10.20;99.90;;;;;;5073364;28;20037;-54
2022/10/08 03:39:11;;;;;;;15.45;8.30;;;10.20;99.90;;;;;;5074851;28;20048;-55
2022/10/08 03:41:38;;;;;;;14.63;9.48;;;10.20;99.90;;;;;;5074173;28;20131;-55
2022/10/08 03:44:09;;;;;;;15.95;9.52;;;10.10;99.90;;;;;;5074172;28;20090;-55
2022/10/08 03:46:36;;;;;;;19.30;9.27;;;10.10;99.90;;;;;;5080625;28;20070;-55
2022/10/08 03:49:03;;;;;;;14.00;8.82;;;10.10;99.90;;;;;;5074114;28;20105;-53
2022/10/08 03:51:29;;;;;;;18.15;9.23;;;10.10;99.90;;;;;;5073557;28;20064;-54
2022/10/08 03:53:57;;;;;;;13.52;8.85;;;10.10;99.90;;;;;;5073977;28;20052;-54
2022/10/08 03:56:24;;;;;;;19.33;10.02;;;10.00;99.90;;;;;;5080507;28;20124;-52
2022/10/08 03:58:53;;;;;;;21.58;9.15;;;10.00;99.90;;;;;;5082547;28;20124;-54
2022/10/08 04:01:21;;;;;;;16.08;8.70;;;9.90;99.90;;;;;;5080490;28;20094;-52
2022/10/08 04:03:48;;;;;;;21.42;10.25;;;10.00;99.90;;;;;;5073706;28;20128;-53
2022/10/08 04:06:15;;;;;;;22.10;11.45;;;10.00;99.90;;;;;;5082713;28;20071;-55
2022/10/08 04:08:42;;;;;;;20.75;12.02;;;10.00;99.90;;;;;;5081082;28;20158;-55
2022/10/08 04:11:12;;;;;;;22.20;11.35;;;10.00;99.90;;;;;;5072988;28;20102;-52
2022/10/08 04:13:39;;;;;;;25.25;12.65;;;10.00;99.90;;;;;;5077015;28;20074;-52
2022/10/08 04:16:09;;;;;;;25.63;13.07;;;10.00;99.90;;;;;;5076465;28;20497;-54
2022/10/08 04:18:37;;;;;;;27.20;12.82;;;9.90;99.90;;;;;;5073889;28;20041;-54
2022/10/08 04:21:07;;;;;;;23.38;13.27;;;9.90;99.90;;;;;;5072755;28;20079;-52
2022/10/08 04:23:36;;;;;;;23.92;12.75;;;9.90;99.90;;;;;;5081091;28;20102;-53
2022/10/08 04:26:03;;;;;;;26.95;13.30;;;9.90;99.90;;;;;;5088640;28;20139;-55
2022/10/08 04:28:30;;;;;;;34.95;13.88;;;10.00;99.90;;;;;;5090833;28;20040;-52
2022/10/08 04:31:16;;;;;;;28.45;12.93;;;10.00;99.90;;;;;;5089482;28;20488;-54
2022/10/08 04:33:44;;;;;;;24.13;12.98;;;10.00;99.90;;;;;;5092409;28;20127;-53
2022/10/08 04:36:17;;;;;;;29.17;13.10;;;10.00;99.90;;;;;;5093865;28;20044;-56
2022/10/08 04:38:44;;;;;;;24.98;12.98;;;10.00;99.90;;;;;;5089662;28;20102;-55
2022/10/08 04:41:16;;;;;;;22.10;12.00;;;10.10;99.90;;;;;;5076923;28;20079;-55
2022/10/08 04:43:44;;;;;;;25.90;13.55;;;10.10;99.90;;;;;;5071793;28;20056;-56
2022/10/08 04:46:15;;;;;;;25.60;13.55;;;10.10;99.90;;;;;;5073229;28;20563;-54
2022/10/08 04:48:50;;;;;;;23.85;13.90;;;10.10;99.90;;;;;;5081919;28;20040;-55
2022/10/08 04:51:18;;;;;;;24.92;13.30;;;10.10;99.90;;;;;;5079741;28;20094;-54
2022/10/08 04:53:45;;;;;;;23.45;12.98;;;10.10;99.90;;;;;;5072371;28;20079;-53
2022/10/08 04:56:15;;;;;;;23.65;12.48;;;10.20;99.90;;;;;;5071693;28;20120;-54
2022/10/08 04:58:43;;;;;;;25.05;13.23;;;10.20;99.90;;;;;;5072468;28;20404;-51
2022/10/08 05:01:12;;;;;;;18.35;12.13;;;10.10;99.90;;;;;;5073147;28;20083;-54
2022/10/08 05:03:43;;;;;;;22.38;12.73;;;10.10;99.90;;;;;;5073640;28;20083;-52
2022/10/08 05:06:11;;;;;;;25.92;13.15;;;10.00;99.90;;;;;;5092524;28;20074;-54
2022/10/08 05:08:38;;;;;;;22.38;12.38;;;10.00;99.90;;;;;;5081019;28;20076;-53
2022/10/08 05:11:05;;;;;;;23.02;12.80;;;10.00;99.90;;;;;;5072600;28;20041;-52
2022/10/08 05:13:32;;;;;;;19.67;11.00;;;10.10;99.90;;;;;;5080353;28;20512;-55
2022/10/08 05:16:03;;;;;;;16.55;9.77;;;10.10;99.90;;;;;;5072509;28;20083;-53
2022/10/08 05:18:32;;;;;;;15.82;8.90;;;10.20;99.90;;;;;;5071865;28;20086;-54
2022/10/08 05:21:04;;;;;;;26.05;13.65;;;10.20;99.90;;;;;;5072453;28;20045;-55
2022/10/08 05:23:31;;;;;;;18.67;10.38;;;10.20;99.90;;;;;;5077784;28;20101;-52
2022/10/08 05:25:58;;;;;;;;;;;10.20;99.90;;;;;;5079330;28;20082;-54
2022/10/08 05:28:24;;;;;;;22.85;13.30;;;10.20;99.90;;;;;;5078953;28;19962;-53
2022/10/08 05:30:51;;;;;;;25.98;12.82;;;10.20;99.90;;;;;;5070992;28;20041;-53
2022/10/08 05:33:18;;;;;;;27.08;13.45;;;10.20;99.90;;;;;;5089628;28;20075;-55
2022/10/08 05:35:45;;;;;;;25.75;12.75;;;10.20;99.90;;;;;;5089605;28;20456;-53
2022/10/08 05:38:11;;;;;;;25.35;13.73;;;10.20;99.90;;;;;;5071754;28;20032;-54
2022/10/08 05:40:38;;;;;;;28.37;11.87;;;10.30;99.90;;;;;;5072125;28;20068;-52
2022/10/08 05:43:05;;;;;;;20.42;8.00;;;10.20;99.90;;;;;;5071872;28;20340;-52
2022/10/08 05:45:31;;;;;;;15.55;8.18;;;10.20;99.90;;;;;;5074528;28;20097;-55
2022/10/08 05:47:58;;;;;;;12.90;6.70;;;10.40;99.90;;;;;;5071738;28;20049;-55
2022/10/08 05:50:25;;;;;;;11.87;6.80;;;10.10;99.90;;;;;;5070789;28;20123;-53
2022/10/08 05:52:51;;;;;;;11.40;7.20;;;10.00;99.90;;;;;;5071639;28;20365;-55
2022/10/08 05:55:18;;;;;;;14.30;7.18;;;10.00;99.90;;;;;;5070818;28;20454;-56
2022/10/08 05:57:45;;;;;;;14.93;5.97;;;10.10;99.90;;;;;;5079192;28;20090;-52
2022/10/08 06:00:13;;;;;;;11.20;6.03;;;10.10;99.90;;;;;;5071054;28;20052;-55
2022/10/08 06:02:39;;;;;;;16.73;6.05;;;10.10;99.90;;;;;;5071656;28;20059;-53
2022/10/08 06:05:06;;;;;;;16.80;5.43;;;10.00;99.90;;;;;;5070362;28;20447;-55
2022/10/08 06:07:33;;;;;;;9.27;5.85;;;10.00;99.90;;;;;;5080226;28;20102;-54
2022/10/08 06:10:00;;;;;;;12.88;5.80;;;10.10;99.90;;;;;;5081704;28;20067;-54
2022/10/08 06:12:27;;;;;;;21.97;10.40;;;10.20;99.90;;;;;;5071472;28;20078;-54
2022/10/08 06:14:53;;;;;;;20.40;11.00;;;10.40;99.90;;;;;;5071260;28;20751;-53
2022/10/08 06:17:21;;;;;;;27.60;12.52;;;10.30;99.90;;;;;;5081431;28;20091;-52
2022/10/08 06:19:48;;;;;;;26.92;13.20;;;10.40;99.90;;;;;;5074155;28;20455;-56
2022/10/08 06:22:14;;;;;;;22.38;13.20;;;10.50;99.90;;;;;;5092173;28;20048;-54
2022/10/08 06:24:41;;;;;;;26.33;13.20;;;10.50;99.90;;;;;;5084970;28;20444;-54
2022/10/08 06:27:11;;;;;;;26.92;12.40;;;10.60;99.90;;;;;;5074376;28;20070;-51
2022/10/08 06:29:37;;;;;;;21.52;12.65;;;10.60;99.90;;;;;;5070413;28;20130;-53
2022/10/08 06:32:04;;;;;;;20.88;13.10;;;10.70;99.90;;;;;;5086858;28;20484;-55
2022/10/08 06:34:31;;;;;;;22.85;13.50;;;10.90;99.90;;;;;;5084420;28;20472;-53
2022/10/08 06:36:57;;;;;;;22.58;12.80;;;10.80;99.90;;;;;;5079704;28;20116;-54
2022/10/08 06:39:24;;;;;;;26.52;14.23;;;10.90;99.90;;;;;;5069612;28;20079;-52
2022/10/08 06:41:51;;;;;;;22.38;12.18;;;10.90;99.90;;;;;;5081186;28;20451;-55
2022/10/08 06:44:18;;;;;;;20.13;12.38;;;10.80;99.90;;;;;;5084948;28;20044;-55
2022/10/08 06:46:44;;;;;;;20.10;11.50;;;10.90;99.90;;;;;;5087082;28;20040;-55
2022/10/08 06:49:11;;;;;;;22.10;12.10;;;10.90;99.90;;;;;;5089767;28;20047;-55
2022/10/08 06:51:38;;;;;;;17.90;11.32;;;10.90;99.90;;;;;;5086908;28;20040;-57
2022/10/08 06:54:05;;;;;;;20.13;11.93;;;10.90;99.90;;;;;;5073118;28;20121;-54
2022/10/08 06:56:35;;;;;;;17.58;11.35;;;11.00;99.90;;;;;;5071122;28;20055;-55
2022/10/08 06:59:04;;;;;;;19.45;12.00;;;11.00;99.90;;;;;;5072877;28;20052;-53
2022/10/08 07:01:31;;;;;;;18.83;10.48;;;11.00;99.90;;;;;;5075825;28;20067;-54
2022/10/08 07:04:01;;;;;;;18.48;11.25;;;11.10;99.90;;;;;;5069631;28;20052;-53
2022/10/08 07:06:28;;;;;;;19.27;10.48;;;11.30;99.90;;;;;;5070781;28;20109;-55
2022/10/08 07:08:57;;;;;;;19.05;10.43;;;11.20;99.90;;;;;;5067831;28;20097;-54
2022/10/08 07:11:25;;;;;;;16.55;11.05;;;11.10;99.90;;;;;;5076738;28;20066;-57
2022/10/08 07:13:53;;;;;;;19.73;10.63;;;11.20;99.90;;;;;;5069889;28;20103;-54
2022/10/08 07:16:22;;;;;;;20.02;12.02;;;11.20;99.90;;;;;;5070730;28;20079;-55
2022/10/08 07:18:51;;;;;;;18.45;10.98;;;11.30;99.90;;;;;;5079216;28;20097;-56
2022/10/08 07:21:20;;;;;;;20.15;10.48;;;11.30;99.90;;;;;;5071911;28;20551;-54
2022/10/08 07:23:47;;;;;;;23.63;12.57;;;11.30;99.90;;;;;;5069999;28;20094;-55
2022/10/08 07:26:19;;;;;;;18.42;10.75;;;11.40;99.90;;;;;;5071249;28;20581;-55
2022/10/08 07:28:58;;;;;;;17.02;10.88;;;11.40;99.90;;;;;;5079782;28;20070;-52
2022/10/08 07:31:28;;;;;;;19.42;10.73;;;11.50;99.90;;;;;;5069966;28;20060;-52
2022/10/08 07:33:56;;;;;;;16.20;11.05;;;11.50;99.90;;;;;;5082852;28;20075;-52
2022/10/08 07:36:24;;;;;;;19.15;10.32;;;11.70;99.90;;;;;;5087694;28;20067;-55
2022/10/08 07:38:56;;;;;;;18.85;10.55;;;11.60;99.90;;;;;;5081678;28;20133;-52
2022/10/08 07:41:23;;;;;;;18.48;10.50;;;11.60;99.90;;;;;;5081927;28;20075;-55
2022/10/08 07:43:57;;;;;;;26.45;11.90;;;11.70;99.90;;;;;;5075793;28;20107;-54
2022/10/08 07:46:32;;;;;;;18.17;10.95;;;11.70;99.90;;;;;;5071240;28;20098;-54
2022/10/08 07:49:00;;;;;;;20.83;12.60;;;11.70;99.90;;;;;;5082451;28;20073;-56
2022/10/08 07:51:30;;;;;;;21.92;10.85;;;11.90;99.90;;;;;;5087166;28;20106;-55
2022/10/08 07:53:58;;;;;;;19.52;10.95;;;12.00;99.90;;;;;;5089082;28;20032;-54
2022/10/08 07:56:29;;;;;;;15.57;10.10;;;12.00;99.90;;;;;;5083562;28;20036;-55
2022/10/08 07:58:56;;;;;;;;;;;12.10;99.90;;;;;;5088121;28;20523;-54
2022/10/08 08:01:29;;;;;;;19.85;11.48;;;12.10;99.90;;;;;;5084880;28;19924;-53
2022/10/08 08:04:03;;;;;;;17.83;11.02;;;12.20;99.90;;;;;;5085654;28;20040;-55
2022/10/08 08:06:32;;;;;;;18.15;10.02;;;12.60;99.90;;;;;;5086511;28;20048;-52
2022/10/08 08:09:01;;;;;;;18.08;10.65;;;12.40;99.90;;;;;;5088107;28;20420;-55
2022/10/08 08:11:28;;;;;;;19.55;10.73;;;12.70;99.90;;;;;;5081884;28;20036;-55
2022/10/08 08:13:55;;;;;;;17.35;10.43;;;12.80;99.90;;;;;;5083004;28;20103;-52
2022/10/08 08:16:25;;;;;;;13.20;9.45;;;13.00;99.90;;;;;;5087320;28;20036;-54
2022/10/08 08:18:59;;;;;;;15.60;10.07;;;13.10;99.90;;;;;;5093563;28;20043;-55
2022/10/08 08:21:28;;;;;;;14.95;10.93;;;13.20;99.90;;;;;;5088617;28;20536;-53
2022/10/08 08:23:58;;;;;;;15.32;9.65;;;13.20;99.90;;;;;;5074858;28;20555;-54
2022/10/08 08:26:27;;;;;;;15.00;8.73;;;13.20;99.90;;;;;;5099126;22;20457;-48
2022/10/08 08:28:56;;;;;;;16.35;10.05;;;13.10;99.90;;;;;;5085878;28;20093;-47
2022/10/08 08:31:35;;;;;;;15.90;10.20;;;13.20;99.90;;;;;;5055188;28;20300;-49
2022/10/08 08:34:05;;;;;;;18.67;9.18;;;13.30;99.90;;;;;;5072212;28;20040;-52
2022/10/08 08:36:35;;;;;;;16.58;9.77;;;13.40;99.90;;;;;;5065670;28;20051;-49
2022/10/08 08:39:03;;;;;;;20.45;10.60;;;13.50;99.90;;;;;;5051843;28;20052;-49
2022/10/08 08:41:56;;;;;;;15.50;10.02;;;13.60;99.90;;;;;;5053609;28;20414;-51
2022/10/08 08:44:26;;;;;;;13.90;9.10;;;13.60;99.90;;;;;;5051755;28;20570;-48
2022/10/08 08:46:58;;;;;;;14.82;9.75;;;13.60;99.90;;;;;;5052609;28;20056;-48
2022/10/08 08:49:31;;;;;;;13.10;9.20;;;13.70;99.90;;;;;;5055939;28;20044;-49
2022/10/08 08:52:03;;;;;;;13.73;9.00;;;13.60;99.90;;;;;;5073046;28;20066;-48
2022/10/08 08:54:30;;;;;;;16.13;8.90;;;13.90;99.90;;;;;;5059972;28;20045;-47
2022/10/08 08:57:13;;;;;;;14.52;9.25;;;13.80;99.90;;;;;;5051856;28;20041;-47
2022/10/08 08:59:45;;;;;;;12.45;8.15;;;13.80;99.90;;;;;;5064556;28;20048;-49
2022/10/08 09:02:33;;;;;;;17.38;8.98;;;14.00;99.90;;;;;;5062785;28;20052;-48
2022/10/08 09:05:03;;;;;;;15.07;8.93;;;13.80;99.90;;;;;;5060622;28;20055;-48
2022/10/08 09:07:45;;;;;;;13.10;8.85;;;14.00;99.90;;;;;;5070005;28;20282;-48
2022/10/08 09:10:18;;;;;;;16.30;9.43;;;14.00;99.90;;;;;;5071623;28;20094;-49
2022/10/08 09:12:46;;;;;;;15.02;8.88;;;13.80;99.90;;;;;;5058826;28;20041;-47
2022/10/08 09:15:20;;;;;;;12.18;8.15;;;13.80;99.90;;;;;;5052161;28;20052;-48
2022/10/08 09:17:53;;;;;;;16.90;9.13;;;13.90;99.90;;;;;;5051441;28;20497;-47
2022/10/08 09:20:23;;;;;;;15.00;8.88;;;14.10;99.90;;;;;;5052178;28;20081;-47
2022/10/08 09:22:52;;;;;;;20.00;9.55;;;14.00;99.90;;;;;;5051150;28;20045;-51
2022/10/08 09:25:22;;;;;;;17.85;9.38;;;14.10;99.90;;;;;;5051826;28;20076;-49
2022/10/08 09:28:00;;;;;;;15.77;9.00;;;14.40;99.90;;;;;;5053842;28;20401;-48
2022/10/08 09:30:33;;;;;;;14.25;8.85;;;14.40;99.90;;;;;;5065318;28;20055;-48
2022/10/08 09:33:15;;;;;;;12.80;8.27;;;14.50;99.90;;;;;;5067159;28;20060;-49
2022/10/08 09:35:50;;;;;;;11.20;7.97;;;14.70;99.90;;;;;;5064673;28;20122;-48
2022/10/08 09:38:28;;;;;;;14.68;9.48;;;14.70;99.90;;;;;;5064262;28;20040;-48
2022/10/08 09:41:05;;;;;;;12.77;8.23;;;14.70;99.90;;;;;;5069547;28;20106;-50
2022/10/08 09:43:33;;;;;;;11.40;8.07;;;14.70;99.90;;;;;;5062285;28;20072;-50
2022/10/08 09:46:10;;;;;;;10.55;7.90;;;14.70;99.90;;;;;;5065621;28;20098;-47
2022/10/08 09:48:38;;;;;;;17.13;8.55;;;14.80;99.90;;;;;;5066561;28;20055;-47
2022/10/08 09:51:12;;;;;;;20.05;9.00;;;14.80;99.90;;;;;;5068175;28;20041;-48
2022/10/08 09:53:47;;;;;;;16.30;9.25;;;15.10;99.90;;;;;;5065224;28;20552;-49
2022/10/08 09:56:25;;;;;;;12.90;8.05;;;15.40;99.90;;;;;;5067154;28;20028;-51
2022/10/08 09:59:01;;;;;;;13.40;8.40;;;15.50;99.90;;;;;;5071304;28;20078;-49
2022/10/08 10:01:30;;;;;;;11.38;8.45;;;15.70;99.90;;;;;;5068190;28;20048;-49
2022/10/08 10:04:01;;;;;;;12.70;8.35;;;15.70;99.90;;;;;;5068579;28;20040;-49
2022/10/08 10:06:36;;;;;;;14.52;7.80;;;15.70;99.90;;;;;;5065876;28;20097;-49
2022/10/08 10:09:33;;;;;;;10.85;7.38;;;15.70;99.90;;;;;;5068974;28;20045;-49
2022/10/08 10:12:18;;;;;;;13.30;7.40;;;15.90;99.90;;;;;;5065264;28;20110;-48
2022/10/08 10:15:10;;;;;;;11.45;7.25;;;16.00;99.90;;;;;;5049802;28;20102;-47
2022/10/08 10:17:43;;;;;;;14.13;8.43;;;16.10;99.90;;;;;;5051388;28;20126;-47
2022/10/08 10:20:24;;;;;;;8.85;7.00;;;16.10;99.90;;;;;;5050587;28;20076;-48
2022/10/08 10:22:57;;;;;;;12.98;6.93;;;16.20;99.90;;;;;;5056781;28;20052;-48
2022/10/08 10:25:39;;;;;;;11.52;7.47;;;16.60;99.90;;;;;;5051140;28;20497;-47
2022/10/08 10:28:38;;;;;;;11.60;6.60;;;17.00;99.90;;;;;;5050976;28;20045;-47
2022/10/08 10:31:22;;;;;;;9.55;6.65;;;17.50;99.90;;;;;;5050764;28;20068;-47
2022/10/08 10:33:54;;;;;;;7.45;6.03;;;17.80;99.90;;;;;;5050805;28;20036;-48
2022/10/08 10:36:24;;;;;;;10.45;6.40;;;17.90;99.90;;;;;;5057961;28;20382;-48
2022/10/08 10:39:11;;;;;;;13.18;6.63;;;17.90;99.90;;;;;;5054715;28;20104;-50
2022/10/08 10:41:46;;;;;;;12.60;6.47;;;18.00;99.90;;;;;;5051407;28;20099;-48
2022/10/08 10:44:18;;;;;;;9.68;6.15;;;18.00;99.90;;;;;;5050023;28;20049;-48
2022/10/08 10:46:52;;;;;;;8.93;5.90;;;17.90;99.90;;;;;;5051414;28;20041;-49
2022/10/08 10:49:23;;;;;;;10.05;6.53;;;17.90;99.90;;;;;;5057626;28;20489;-48
2022/10/08 10:52:02;;;;;;;10.13;7.43;;;18.10;99.90;;;;;;5050518;28;20052;-48
2022/10/08 10:54:44;;;;;;;10.32;6.70;;;18.10;99.90;;;;;;5052165;28;20040;-48
2022/10/08 10:57:30;;;;;;;16.23;7.68;;;18.30;99.90;;;;;;5070574;28;20079;-49
2022/10/08 11:00:34;;;;;;;11.52;6.68;;;18.40;99.90;;;;;;5053321;28;20049;-50
2022/10/08 11:03:09;;;;;;;10.90;7.03;;;18.60;99.90;;;;;;5049417;28;20060;-47
2022/10/08 11:05:39;;;;;;;8.85;6.30;;;18.70;99.90;;;;;;5045981;28;20449;-58
2022/10/08 11:08:25;;;;;;;10.27;6.57;;;18.90;99.90;;;;;;5063133;28;20051;-49
2022/10/08 11:11:16;;;;;;;14.77;6.68;;;19.20;99.90;;;;;;5067821;28;20047;-49
2022/10/08 11:14:00;;;;;;;8.88;6.55;;;19.00;99.90;;;;;;5064732;28;20059;-50
2022/10/08 11:16:34;;;;;;;9.70;6.63;;;19.10;99.90;;;;;;5064672;28;20430;-49
2022/10/08 11:19:04;;;;;;;13.63;6.45;;;19.20;99.90;;;;;;5065817;28;20075;-48
2022/10/08 11:21:46;;;;;;;11.43;6.93;;;19.10;99.90;;;;;;5069290;28;20040;-52
2022/10/08 11:24:34;;;;;;;12.82;7.20;;;19.30;99.90;;;;;;5067976;28;20048;-48
2022/10/08 11:27:19;;;;;;;13.95;6.85;;;19.40;99.90;;;;;;5059129;28;20045;-53
2022/10/08 11:30:13;;;;;;;9.38;6.10;;;19.50;99.90;;;;;;5050769;28;20612;-48
2022/10/08 11:32:44;;;;;;;11.82;6.15;;;19.10;99.90;;;;;;5049951;28;20114;-49
2022/10/08 11:35:11;;;;;;;9.88;5.82;;;19.10;99.90;;;;;;5050779;28;20037;-48
2022/10/08 11:37:51;;;;;;;10.57;5.85;;;19.30;99.90;;;;;;5054306;28;20069;-53
2022/10/08 11:40:27;;;;;;;10.27;5.60;;;19.30;99.90;;;;;;5050291;28;20052;-48
2022/10/08 11:43:10;;;;;;;9.07;6.43;;;19.60;99.90;;;;;;5049245;28;20083;-49
2022/10/08 11:45:38;;;;;;;12.95;6.05;;;19.80;99.90;;;;;;5049947;28;20455;-52
2022/10/08 11:48:31;;;;;;;16.35;8.35;;;19.80;99.90;;;;;;5051965;28;20052;-48
2022/10/08 11:51:17;;;;;;;12.27;6.80;;;19.40;99.90;;;;;;5053132;28;20493;-48
2022/10/08 11:54:17;;;;;;;10.48;6.47;;;19.20;99.90;;;;;;5062126;28;20146;-51
2022/10/08 11:56:46;;;;;;;10.55;7.10;;;19.10;99.90;;;;;;5062953;28;20060;-52
2022/10/08 11:59:39;;;;;;;12.52;6.22;;;19.00;99.90;;;;;;5064509;28;20045;-48
2022/10/08 12:02:31;;;;;;;13.50;6.15;;;18.90;99.90;;;;;;5053300;28;20138;-52
2022/10/08 12:05:15;;;;;;;9.20;6.43;;;18.80;99.90;;;;;;5053214;28;20522;-49
2022/10/08 12:07:57;;;;;;;11.75;6.75;;;18.80;99.90;;;;;;5053494;28;20084;-48
2022/10/08 12:10:44;;;;;;;10.52;6.35;;;18.90;99.90;;;;;;5052640;28;20068;-49
2022/10/08 12:13:11;;;;;;;10.63;5.43;;;18.80;99.90;;;;;;5052959;28;20045;-48
2022/10/08 12:15:43;;;;;;;8.45;5.00;;;18.80;99.90;;;;;;5056505;28;20457;-51
2022/10/08 12:18:10;;;;;;;7.00;4.18;;;18.80;99.90;;;;;;5073753;28;20036;-51
2022/10/08 12:20:39;;;;;;;9.43;4.70;;;18.80;99.90;;;;;;5064148;28;20045;-49
2022/10/08 12:23:19;;;;;;;8.80;4.35;;;18.90;99.90;;;;;;5053447;28;20037;-49
2022/10/08 12:25:47;;;;;;;9.13;4.88;;;19.00;99.90;;;;;;5052296;28;20127;-49
2022/10/08 12:28:20;;;;;;;10.05;4.15;;;19.00;99.90;;;;;;5053716;28;20657;-47
2022/10/08 12:30:49;;;;;;;10.05;4.38;;;19.00;99.90;;;;;;5052893;28;20041;-48
2022/10/08 12:33:17;;;;;;;8.98;4.45;;;18.90;99.90;;;;;;5060799;28;20256;-48
2022/10/08 12:36:10;;;;;;;8.57;5.20;;;18.90;99.90;;;;;;5051685;28;20486;-49
2022/10/08 12:38:58;;;;;;;11.88;4.40;;;18.90;99.90;;;;;;5053021;28;20456;-48
2022/10/08 12:41:28;;;;;;;5.85;3.78;;;19.00;99.90;;;;;;5053320;28;20489;-49
2022/10/08 12:44:20;;;;;;;4.97;4.00;;;19.10;99.90;;;;;;5050864;28;20448;-48
2022/10/08 12:47:02;;;;;;;9.05;4.00;;;19.20;99.90;;;;;;5053301;28;20088;-50
2022/10/08 12:49:41;;;;;;;13.88;4.68;;;19.20;99.90;;;;;;5052372;28;20053;-49
2022/10/08 12:52:13;;;;;;;7.15;4.20;;;19.10;99.90;;;;;;5060832;28;20128;-52
2022/10/08 12:54:46;;;;;;;7.28;4.05;;;19.10;99.90;;;;;;5055394;28;20119;-52
2022/10/08 12:57:21;;;;;;;8.38;3.95;;;19.00;99.90;;;;;;5055385;28;20045;-48
2022/10/08 12:59:49;;;;;;;6.40;4.20;;;18.90;99.90;;;;;;5057551;28;20090;-48
2022/10/08 13:02:35;;;;;;;9.15;4.32;;;18.70;99.90;;;;;;5054649;28;20056;-50
2022/10/08 13:05:05;;;;;;;10.00;4.47;;;18.70;99.90;;;;;;5059502;28;20448;-49